createdAt,value
2018-07-13T00:00:15.955Z,0
2018-07-13T00:01:16.532Z,0
2018-07-13T00:02:17.118Z,0
2018-07-13T00:03:17.693Z,0
2018-07-13T00:04:18.267Z,0
2018-07-13T00:05:18.843Z,0
2018-07-13T00:06:19.419Z,0
2018-07-13T00:07:19.993Z,0
2018-07-13T00:08:20.568Z,0
2018-07-13T00:09:21.143Z,0
2018-07-13T00:10:21.721Z,0
2018-07-13T00:11:22.305Z,0
2018-07-13T00:12:22.878Z,0
2018-07-13T00:13:23.457Z,0
2018-07-13T00:14:24.027Z,0
2018-07-13T00:15:24.600Z,0
2018-07-13T00:16:25.175Z,0
2018-07-13T00:17:25.761Z,0
2018-07-13T00:18:26.334Z,0
2018-07-13T00:19:26.919Z,0
2018-07-13T00:20:27.503Z,0
2018-07-13T00:21:28.082Z,0
2018-07-13T00:22:28.654Z,0
2018-07-13T00:23:29.228Z,0
2018-07-13T00:24:29.804Z,0
2018-07-13T00:25:30.378Z,0
2018-07-13T00:26:30.951Z,0
2018-07-13T00:27:31.525Z,0
2018-07-13T00:28:32.099Z,0
2018-07-13T00:29:32.674Z,0
2018-07-13T00:30:33.251Z,0
2018-07-13T00:31:33.824Z,0
2018-07-13T00:32:34.397Z,0
2018-07-13T00:33:34.985Z,0
2018-07-13T00:34:35.560Z,0
2018-07-13T00:35:36.135Z,0
2018-07-13T00:36:36.710Z,0
2018-07-13T00:37:37.283Z,0
2018-07-13T00:38:37.856Z,0
2018-07-13T00:39:38.429Z,0
2018-07-13T00:40:39.004Z,0
2018-07-13T00:41:39.576Z,0
2018-07-13T00:42:40.161Z,0
2018-07-13T00:43:40.735Z,0
2018-07-13T00:44:41.307Z,0
2018-07-13T00:45:41.881Z,0
2018-07-13T00:46:42.458Z,0
2018-07-13T00:47:43.039Z,0
2018-07-13T00:48:43.614Z,0
2018-07-13T00:49:44.187Z,0
2018-07-13T00:50:44.760Z,0
2018-07-13T00:51:45.346Z,0
2018-07-13T00:52:45.920Z,0
2018-07-13T00:53:46.497Z,0
2018-07-13T00:54:47.081Z,0
2018-07-13T00:55:47.671Z,0
2018-07-13T00:56:48.240Z,0
2018-07-13T00:57:48.814Z,0
2018-07-13T00:58:49.390Z,0
2018-07-13T00:59:49.964Z,0
2018-07-13T01:00:50.537Z,0
2018-07-13T01:01:51.122Z,0
2018-07-13T01:02:51.699Z,0
2018-07-13T01:03:52.272Z,0
2018-07-13T01:04:52.845Z,0
2018-07-13T01:05:53.420Z,0
2018-07-13T01:06:53.993Z,0
2018-07-13T01:07:54.567Z,0
2018-07-13T01:08:55.172Z,0
2018-07-13T01:09:55.719Z,0
2018-07-13T01:10:56.292Z,0
2018-07-13T01:11:56.864Z,0
2018-07-13T01:12:57.437Z,0
2018-07-13T01:13:58.012Z,0
2018-07-13T01:14:58.585Z,0
2018-07-13T01:15:59.158Z,0
2018-07-13T01:16:59.731Z,0
2018-07-13T01:18:00.305Z,0
2018-07-13T01:19:00.879Z,0
2018-07-13T01:20:14.188Z,0
2018-07-13T01:21:14.761Z,0
2018-07-13T01:22:15.338Z,0
2018-07-13T01:23:15.922Z,0
2018-07-13T01:24:16.501Z,0
2018-07-13T01:25:17.079Z,0
2018-07-13T01:26:17.652Z,0
2018-07-13T01:27:18.227Z,0
2018-07-13T01:28:18.800Z,0
2018-07-13T01:29:19.372Z,0
2018-07-13T01:30:19.945Z,0
2018-07-13T01:31:20.519Z,0
2018-07-13T01:32:21.094Z,0
2018-07-13T01:33:21.669Z,0
2018-07-13T01:34:22.242Z,0
2018-07-13T01:35:22.824Z,0
2018-07-13T01:36:23.400Z,0
2018-07-13T01:37:23.975Z,0
2018-07-13T01:38:24.550Z,0
2018-07-13T01:39:25.149Z,0
2018-07-13T01:40:25.708Z,0
2018-07-13T01:41:26.280Z,0
2018-07-13T01:42:26.856Z,0
2018-07-13T01:43:27.429Z,0
2018-07-13T01:44:28.016Z,0
2018-07-13T01:45:28.595Z,0
2018-07-13T01:46:29.167Z,0
2018-07-13T01:47:29.749Z,0
2018-07-13T01:48:30.314Z,0
2018-07-13T01:49:30.886Z,0
2018-07-13T01:50:31.458Z,0
2018-07-13T01:51:32.030Z,0
2018-07-13T01:52:32.614Z,0
2018-07-13T01:53:33.188Z,0
2018-07-13T01:54:33.762Z,0
2018-07-13T01:55:34.348Z,0
2018-07-13T01:56:34.907Z,0
2018-07-13T01:57:35.479Z,0
2018-07-13T01:58:36.052Z,0
2018-07-13T01:59:36.624Z,0
2018-07-13T02:00:37.199Z,0
2018-07-13T02:01:37.769Z,0
2018-07-13T02:02:38.342Z,0
2018-07-13T02:03:38.916Z,0
2018-07-13T02:04:39.490Z,0
2018-07-13T02:05:40.074Z,0
2018-07-13T02:06:40.653Z,0
2018-07-13T02:07:41.230Z,0
2018-07-13T02:08:41.806Z,0
2018-07-13T02:09:42.377Z,0
2018-07-13T02:10:42.950Z,0
2018-07-13T02:11:43.533Z,0
2018-07-13T02:12:44.105Z,0
2018-07-13T02:13:44.688Z,0
2018-07-13T02:14:45.263Z,0
2018-07-13T02:15:45.846Z,0
2018-07-13T02:16:46.420Z,0
2018-07-13T02:17:46.993Z,0
2018-07-13T02:18:47.569Z,0
2018-07-13T02:19:48.139Z,0
2018-07-13T02:20:48.713Z,0
2018-07-13T02:21:49.285Z,0
2018-07-13T02:22:49.868Z,0
2018-07-13T02:23:50.443Z,0
2018-07-13T02:24:51.015Z,0
2018-07-13T02:25:51.588Z,0
2018-07-13T02:26:52.161Z,0
2018-07-13T02:27:52.733Z,0
2018-07-13T02:28:53.319Z,0
2018-07-13T02:29:53.891Z,0
2018-07-13T02:30:54.467Z,0
2018-07-13T02:31:55.038Z,0
2018-07-13T02:32:55.625Z,0
2018-07-13T02:33:56.295Z,0
2018-07-13T02:34:56.841Z,0
2018-07-13T02:35:57.350Z,0
2018-07-13T02:36:57.922Z,0
2018-07-13T02:37:58.495Z,0
2018-07-13T02:38:59.072Z,0
2018-07-13T02:39:59.645Z,0
2018-07-13T02:41:00.217Z,0
2018-07-13T02:42:00.790Z,0
2018-07-13T02:43:01.363Z,0
2018-07-13T02:44:01.937Z,0
2018-07-13T02:45:02.510Z,0
2018-07-13T02:46:03.082Z,0
2018-07-13T02:47:03.654Z,0
2018-07-13T02:48:04.228Z,0
2018-07-13T02:49:04.801Z,0
2018-07-13T02:50:05.384Z,0
2018-07-13T02:51:05.968Z,0
2018-07-13T02:52:06.532Z,0
2018-07-13T02:53:07.103Z,0
2018-07-13T02:54:07.684Z,0
2018-07-13T02:55:08.259Z,0
2018-07-13T02:56:08.833Z,0
2018-07-13T02:57:09.408Z,0
2018-07-13T02:58:09.981Z,0
2018-07-13T02:59:10.567Z,0
2018-07-13T03:00:11.137Z,0
2018-07-13T03:01:11.710Z,0
2018-07-13T03:02:12.285Z,0
2018-07-13T03:03:12.863Z,0
2018-07-13T03:04:13.431Z,0
2018-07-13T03:05:14.004Z,4
2018-07-13T03:06:14.588Z,4
2018-07-13T03:07:15.163Z,4
2018-07-13T03:08:15.735Z,0
2018-07-13T03:09:16.312Z,0
2018-07-13T03:10:16.883Z,0
2018-07-13T03:11:17.501Z,4
2018-07-13T03:12:18.028Z,4
2018-07-13T03:13:18.611Z,4
2018-07-13T03:14:19.190Z,0
2018-07-13T03:15:19.758Z,4
2018-07-13T03:16:20.333Z,4
2018-07-13T03:17:20.905Z,0
2018-07-13T03:18:21.482Z,4
2018-07-13T03:19:22.059Z,4
2018-07-13T03:20:22.634Z,4
2018-07-13T03:21:23.207Z,4
2018-07-13T03:22:23.779Z,4
2018-07-13T03:23:24.353Z,4
2018-07-13T03:24:24.925Z,4
2018-07-13T03:25:25.508Z,8
2018-07-13T03:26:26.082Z,8
2018-07-13T03:27:26.656Z,8
2018-07-13T03:28:27.238Z,8
2018-07-13T03:29:27.811Z,8
2018-07-13T03:30:28.385Z,8
2018-07-13T03:31:28.969Z,12
2018-07-13T03:32:29.543Z,8
2018-07-13T03:33:30.115Z,8
2018-07-13T03:34:30.689Z,16
2018-07-13T03:35:31.263Z,12
2018-07-13T03:36:31.839Z,16
2018-07-13T03:37:32.412Z,20
2018-07-13T03:38:32.988Z,20
2018-07-13T03:39:33.562Z,24
2018-07-13T03:40:34.136Z,24
2018-07-13T03:41:34.709Z,24
2018-07-13T03:42:35.284Z,28
2018-07-13T03:43:35.855Z,28
2018-07-13T03:44:36.432Z,32
2018-07-13T03:45:37.005Z,32
2018-07-13T03:46:37.579Z,36
2018-07-13T03:47:38.156Z,36
2018-07-13T03:48:38.729Z,36
2018-07-13T03:49:39.302Z,40
2018-07-13T03:50:39.875Z,44
2018-07-13T03:51:40.450Z,44
2018-07-13T03:52:41.025Z,48
2018-07-13T03:53:41.601Z,56
2018-07-13T03:54:42.175Z,56
2018-07-13T03:55:42.747Z,60
2018-07-13T03:56:43.322Z,64
2018-07-13T03:57:43.895Z,64
2018-07-13T03:58:44.468Z,68
2018-07-13T03:59:45.042Z,72
2018-07-13T04:00:45.626Z,76
2018-07-13T04:01:46.198Z,80
2018-07-13T04:02:46.771Z,84
2018-07-13T04:03:47.346Z,80
2018-07-13T04:04:47.918Z,88
2018-07-13T04:05:48.493Z,88
2018-07-13T04:06:49.083Z,92
2018-07-13T04:07:49.649Z,96
2018-07-13T04:08:50.223Z,96
2018-07-13T04:09:50.797Z,100
2018-07-13T04:10:51.371Z,104
2018-07-13T04:11:51.948Z,104
2018-07-13T04:12:52.522Z,108
2018-07-13T04:13:53.097Z,108
2018-07-13T04:14:53.672Z,112
2018-07-13T04:15:54.246Z,116
2018-07-13T04:16:54.823Z,116
2018-07-13T04:17:55.398Z,120
2018-07-13T04:18:55.975Z,124
2018-07-13T04:19:56.548Z,124
2018-07-13T04:20:57.122Z,132
2018-07-13T04:21:57.700Z,136
2018-07-13T04:22:58.283Z,136
2018-07-13T04:23:58.857Z,140
2018-07-13T04:24:59.430Z,144
2018-07-13T04:26:00.008Z,144
2018-07-13T04:27:00.592Z,148
2018-07-13T04:28:01.181Z,152
2018-07-13T04:29:01.752Z,156
2018-07-13T04:30:02.326Z,160
2018-07-13T04:31:02.910Z,164
2018-07-13T04:32:03.488Z,172
2018-07-13T04:33:04.063Z,168
2018-07-13T04:34:04.691Z,176
2018-07-13T04:35:05.224Z,180
2018-07-13T04:36:05.798Z,180
2018-07-13T04:37:06.372Z,188
2018-07-13T04:38:06.948Z,192
2018-07-13T04:39:07.522Z,192
2018-07-13T04:40:08.097Z,196
2018-07-13T04:41:08.699Z,200
2018-07-13T04:42:09.252Z,200
2018-07-13T04:43:09.823Z,204
2018-07-13T04:44:10.401Z,208
2018-07-13T04:45:10.978Z,216
2018-07-13T04:46:11.564Z,220
2018-07-13T04:47:12.142Z,220
2018-07-13T04:48:12.717Z,224
2018-07-13T04:49:13.294Z,228
2018-07-13T04:50:13.917Z,228
2018-07-13T04:51:14.447Z,232
2018-07-13T04:52:15.023Z,236
2018-07-13T04:53:15.598Z,240
2018-07-13T04:54:16.175Z,244
2018-07-13T04:55:16.761Z,248
2018-07-13T04:56:17.337Z,252
2018-07-13T04:57:17.911Z,256
2018-07-13T04:58:18.488Z,256
2018-07-13T04:59:19.064Z,264
2018-07-13T05:00:19.651Z,272
2018-07-13T05:01:20.225Z,268
2018-07-13T05:02:20.802Z,272
2018-07-13T05:03:21.377Z,288
2018-07-13T05:04:21.955Z,288
2018-07-13T05:05:22.531Z,288
2018-07-13T05:06:23.120Z,296
2018-07-13T05:07:23.695Z,300
2018-07-13T05:08:24.269Z,284
2018-07-13T05:09:24.847Z,304
2018-07-13T05:10:25.424Z,292
2018-07-13T05:11:26.011Z,312
2018-07-13T05:12:26.587Z,316
2018-07-13T05:13:27.163Z,320
2018-07-13T05:14:27.736Z,316
2018-07-13T05:15:28.313Z,312
2018-07-13T05:16:28.893Z,284
2018-07-13T05:17:29.467Z,288
2018-07-13T05:18:30.043Z,288
2018-07-13T05:19:30.624Z,292
2018-07-13T05:20:31.203Z,296
2018-07-13T05:21:31.774Z,320
2018-07-13T05:22:32.350Z,324
2018-07-13T05:23:32.928Z,316
2018-07-13T05:24:33.505Z,288
2018-07-13T05:25:34.083Z,268
2018-07-13T05:26:34.655Z,240
2018-07-13T05:27:35.243Z,232
2018-07-13T05:28:35.820Z,240
2018-07-13T05:29:36.396Z,240
2018-07-13T05:30:36.973Z,240
2018-07-13T05:31:37.550Z,248
2018-07-13T05:32:38.125Z,264
2018-07-13T05:33:38.699Z,268
2018-07-13T05:34:39.278Z,288
2018-07-13T05:35:39.854Z,292
2018-07-13T05:36:40.442Z,292
2018-07-13T05:37:41.018Z,288
2018-07-13T05:38:41.603Z,280
2018-07-13T05:39:42.181Z,280
2018-07-13T05:40:42.756Z,276
2018-07-13T05:41:43.332Z,264
2018-07-13T05:42:43.907Z,256
2018-07-13T05:43:44.485Z,252
2018-07-13T05:44:45.061Z,244
2018-07-13T05:45:45.638Z,240
2018-07-13T05:46:46.211Z,236
2018-07-13T05:47:46.787Z,224
2018-07-13T05:48:47.372Z,216
2018-07-13T05:49:48.017Z,212
2018-07-13T05:50:48.525Z,212
2018-07-13T05:51:49.101Z,232
2018-07-13T05:52:49.678Z,244
2018-07-13T05:53:50.257Z,240
2018-07-13T05:54:50.845Z,236
2018-07-13T05:55:51.422Z,232
2018-07-13T05:56:52.008Z,244
2018-07-13T05:57:52.582Z,248
2018-07-13T05:58:53.159Z,248
2018-07-13T05:59:53.741Z,256
2018-07-13T06:00:54.314Z,264
2018-07-13T06:01:54.890Z,272
2018-07-13T06:02:55.466Z,264
2018-07-13T06:03:56.097Z,244
2018-07-13T06:04:56.620Z,240
2018-07-13T06:05:57.199Z,252
2018-07-13T06:06:57.772Z,276
2018-07-13T06:07:58.357Z,280
2018-07-13T06:08:58.934Z,284
2018-07-13T06:09:59.525Z,288
2018-07-13T06:11:00.097Z,300
2018-07-13T06:12:00.675Z,316
2018-07-13T06:13:01.263Z,320
2018-07-13T06:14:01.840Z,328
2018-07-13T06:15:02.444Z,344
2018-07-13T06:16:03.007Z,352
2018-07-13T06:17:03.591Z,344
2018-07-13T06:18:04.166Z,328
2018-07-13T06:19:04.743Z,324
2018-07-13T06:20:05.319Z,324
2018-07-13T06:21:05.894Z,332
2018-07-13T06:22:06.469Z,352
2018-07-13T06:23:07.046Z,392
2018-07-13T06:24:07.647Z,420
2018-07-13T06:25:08.198Z,420
2018-07-13T06:26:08.775Z,412
2018-07-13T06:27:09.352Z,396
2018-07-13T06:28:09.928Z,368
2018-07-13T06:29:10.504Z,344
2018-07-13T06:30:11.114Z,328
2018-07-13T06:31:11.670Z,324
2018-07-13T06:32:12.245Z,324
2018-07-13T06:33:12.822Z,320
2018-07-13T06:34:13.400Z,320
2018-07-13T06:35:13.977Z,336
2018-07-13T06:36:14.551Z,340
2018-07-13T06:37:15.135Z,344
2018-07-13T06:38:15.710Z,344
2018-07-13T06:39:16.295Z,332
2018-07-13T06:40:16.872Z,320
2018-07-13T06:41:17.447Z,328
2018-07-13T06:42:18.023Z,348
2018-07-13T06:43:18.600Z,368
2018-07-13T06:44:19.176Z,400
2018-07-13T06:45:19.751Z,420
2018-07-13T06:46:20.326Z,436
2018-07-13T06:47:20.907Z,432
2018-07-13T06:48:21.490Z,424
2018-07-13T06:49:22.065Z,436
2018-07-13T06:50:22.697Z,444
2018-07-13T06:51:23.228Z,452
2018-07-13T06:52:23.805Z,460
2018-07-13T06:53:24.384Z,552
2018-07-13T06:54:24.958Z,512
2018-07-13T06:55:25.539Z,512
2018-07-13T06:56:26.109Z,528
2018-07-13T06:57:26.694Z,528
2018-07-13T06:58:27.271Z,592
2018-07-13T06:59:27.849Z,608
2018-07-13T07:00:28.437Z,676
2018-07-13T07:01:29.023Z,616
2018-07-13T07:02:29.598Z,772
2018-07-13T07:03:30.178Z,700
2018-07-13T07:04:30.753Z,788
2018-07-13T07:05:31.331Z,724
2018-07-13T07:06:31.919Z,652
2018-07-13T07:07:32.517Z,784
2018-07-13T07:08:33.077Z,796
2018-07-13T07:09:33.655Z,776
2018-07-13T07:10:34.231Z,692
2018-07-13T07:11:34.808Z,680
2018-07-13T07:12:35.389Z,704
2018-07-13T07:13:35.964Z,512
2018-07-13T07:14:36.541Z,492
2018-07-13T07:15:37.133Z,464
2018-07-13T07:16:37.718Z,476
2018-07-13T07:17:38.296Z,648
2018-07-13T07:18:38.872Z,488
2018-07-13T07:19:39.447Z,496
2018-07-13T07:20:40.025Z,476
2018-07-13T07:21:40.602Z,464
2018-07-13T07:22:41.176Z,456
2018-07-13T07:23:41.759Z,488
2018-07-13T07:24:42.330Z,524
2018-07-13T07:25:42.908Z,468
2018-07-13T07:26:43.486Z,468
2018-07-13T07:27:44.062Z,476
2018-07-13T07:28:44.638Z,480
2018-07-13T07:29:45.216Z,472
2018-07-13T07:30:45.866Z,548
2018-07-13T07:31:46.387Z,488
2018-07-13T07:32:46.967Z,520
2018-07-13T07:33:47.547Z,608
2018-07-13T07:34:48.123Z,644
2018-07-13T07:35:48.702Z,640
2018-07-13T07:36:49.291Z,684
2018-07-13T07:37:49.867Z,660
2018-07-13T07:38:50.451Z,656
2018-07-13T07:39:51.019Z,644
2018-07-13T07:40:51.595Z,648
2018-07-13T07:41:52.173Z,636
2018-07-13T07:42:52.750Z,640
2018-07-13T07:43:53.328Z,632
2018-07-13T07:44:53.904Z,636
2018-07-13T07:45:54.480Z,632
2018-07-13T07:46:55.057Z,632
2018-07-13T07:47:55.633Z,632
2018-07-13T07:48:56.245Z,628
2018-07-13T07:49:56.842Z,632
2018-07-13T07:50:57.364Z,628
2018-07-13T07:51:57.943Z,616
2018-07-13T07:52:58.519Z,636
2018-07-13T07:53:59.097Z,636
2018-07-13T07:54:59.675Z,636
2018-07-13T07:56:00.250Z,636
2018-07-13T07:57:00.828Z,632
2018-07-13T07:58:01.403Z,636
2018-07-13T07:59:01.981Z,632
2018-07-13T08:00:02.561Z,632
2018-07-13T08:01:03.150Z,636
2018-07-13T08:02:03.727Z,624
2018-07-13T08:03:04.315Z,608
2018-07-13T08:04:04.925Z,628
2018-07-13T08:05:05.489Z,640
2018-07-13T08:06:06.169Z,636
2018-07-13T08:07:07.214Z,640
2018-07-13T08:08:07.223Z,644
2018-07-13T08:09:07.799Z,644
2018-07-13T08:10:08.376Z,644
2018-07-13T08:11:08.952Z,640
2018-07-13T08:12:09.529Z,644
2018-07-13T08:13:10.107Z,648
2018-07-13T08:14:10.894Z,648
2018-07-13T08:15:11.273Z,640
2018-07-13T08:16:11.852Z,648
2018-07-13T08:17:12.428Z,644
2018-07-13T08:18:13.004Z,648
2018-07-13T08:19:13.584Z,648
2018-07-13T08:20:14.179Z,648
2018-07-13T08:21:14.739Z,648
2018-07-13T08:22:15.319Z,644
2018-07-13T08:23:15.891Z,644
2018-07-13T08:24:16.468Z,648
2018-07-13T08:25:17.047Z,652
2018-07-13T08:26:17.624Z,652
2018-07-13T08:27:18.214Z,656
2018-07-13T08:28:18.791Z,660
2018-07-13T08:29:19.369Z,656
2018-07-13T08:30:19.947Z,656
2018-07-13T08:31:20.525Z,652
2018-07-13T08:32:21.107Z,656
2018-07-13T08:33:21.681Z,660
2018-07-13T08:34:22.260Z,660
2018-07-13T08:35:22.840Z,660
2018-07-13T08:36:23.427Z,660
2018-07-13T08:37:24.006Z,660
2018-07-13T08:38:24.598Z,664
2018-07-13T08:39:25.212Z,664
2018-07-13T08:40:25.750Z,660
2018-07-13T08:41:26.330Z,664
2018-07-13T08:42:26.909Z,664
2018-07-13T08:43:27.485Z,664
2018-07-13T08:44:28.065Z,664
2018-07-13T08:45:28.644Z,664
2018-07-13T08:46:29.224Z,664
2018-07-13T08:47:29.815Z,672
2018-07-13T08:48:30.403Z,672
2018-07-13T08:49:30.989Z,672
2018-07-13T08:50:31.577Z,672
2018-07-13T08:51:32.188Z,676
2018-07-13T08:52:32.751Z,680
2018-07-13T08:53:33.330Z,680
2018-07-13T08:54:33.909Z,680
2018-07-13T08:55:34.490Z,684
2018-07-13T08:56:35.069Z,680
2018-07-13T08:57:35.646Z,684
2018-07-13T08:58:36.235Z,684
2018-07-13T08:59:36.813Z,684
2018-07-13T09:00:37.404Z,684
2018-07-13T09:01:37.986Z,680
2018-07-13T09:02:38.561Z,684
2018-07-13T09:03:39.139Z,684
2018-07-13T09:04:39.719Z,684
2018-07-13T09:05:40.340Z,684
2018-07-13T09:06:40.875Z,684
2018-07-13T09:07:41.456Z,688
2018-07-13T09:08:42.047Z,680
2018-07-13T09:09:42.624Z,692
2018-07-13T09:10:43.208Z,692
2018-07-13T09:11:43.853Z,696
2018-07-13T09:12:44.373Z,696
2018-07-13T09:13:44.953Z,696
2018-07-13T09:14:45.544Z,696
2018-07-13T09:15:46.126Z,692
2018-07-13T09:16:46.713Z,688
2018-07-13T09:17:47.293Z,692
2018-07-13T09:18:47.869Z,696
2018-07-13T09:19:48.448Z,696
2018-07-13T09:20:49.029Z,692
2018-07-13T09:21:49.608Z,688
2018-07-13T09:22:50.187Z,692
2018-07-13T09:23:50.776Z,692
2018-07-13T09:24:51.355Z,696
2018-07-13T09:25:51.944Z,704
2018-07-13T09:26:52.524Z,704
2018-07-13T09:27:53.103Z,704
2018-07-13T09:28:53.682Z,704
2018-07-13T09:29:54.263Z,704
2018-07-13T09:30:54.841Z,700
2018-07-13T09:31:55.421Z,688
2018-07-13T09:32:55.998Z,692
2018-07-13T09:33:56.578Z,696
2018-07-13T09:34:57.160Z,692
2018-07-13T09:35:57.738Z,692
2018-07-13T09:36:58.317Z,696
2018-07-13T09:37:58.960Z,700
2018-07-13T09:38:59.480Z,696
2018-07-13T09:40:00.057Z,700
2018-07-13T09:41:00.648Z,700
2018-07-13T09:42:01.224Z,704
2018-07-13T09:43:01.804Z,696
2018-07-13T09:44:02.384Z,700
2018-07-13T09:45:02.973Z,700
2018-07-13T09:46:03.551Z,708
2018-07-13T09:47:04.310Z,712
2018-07-13T09:48:04.709Z,708
2018-07-13T09:49:05.292Z,704
2018-07-13T09:50:05.882Z,712
2018-07-13T09:51:06.473Z,716
2018-07-13T09:52:07.053Z,720
2018-07-13T09:53:07.640Z,712
2018-07-13T09:54:08.257Z,716
2018-07-13T09:55:08.800Z,716
2018-07-13T09:56:09.379Z,716
2018-07-13T09:57:09.960Z,716
2018-07-13T09:58:10.558Z,712
2018-07-13T09:59:11.129Z,712
2018-07-13T10:00:11.718Z,708
2018-07-13T10:01:12.301Z,720
2018-07-13T10:02:12.881Z,720
2018-07-13T10:03:13.476Z,724
2018-07-13T10:04:14.055Z,732
2018-07-13T10:05:14.633Z,736
2018-07-13T10:06:15.211Z,732
2018-07-13T10:07:15.791Z,728
2018-07-13T10:08:16.371Z,728
2018-07-13T10:09:16.952Z,732
2018-07-13T10:10:17.535Z,736
2018-07-13T10:11:18.114Z,732
2018-07-13T10:12:18.698Z,732
2018-07-13T10:13:19.340Z,732
2018-07-13T10:14:19.856Z,736
2018-07-13T10:15:20.438Z,736
2018-07-13T10:16:21.016Z,740
2018-07-13T10:17:21.594Z,744
2018-07-13T10:18:22.176Z,740
2018-07-13T10:19:22.762Z,740
2018-07-13T10:20:23.339Z,740
2018-07-13T10:21:23.920Z,732
2018-07-13T10:22:24.512Z,732
2018-07-13T10:23:25.089Z,736
2018-07-13T10:24:25.669Z,740
2018-07-13T10:25:26.260Z,740
2018-07-13T10:26:26.840Z,740
2018-07-13T10:27:27.421Z,740
2018-07-13T10:28:28.001Z,740
2018-07-13T10:29:28.582Z,732
2018-07-13T10:30:29.163Z,732
2018-07-13T10:31:29.744Z,728
2018-07-13T10:32:30.323Z,740
2018-07-13T10:33:30.904Z,748
2018-07-13T10:34:31.484Z,748
2018-07-13T10:35:32.135Z,748
2018-07-13T10:36:32.651Z,744
2018-07-13T10:37:33.231Z,744
2018-07-13T10:38:33.813Z,740
2018-07-13T10:39:34.390Z,744
2018-07-13T10:40:34.971Z,748
2018-07-13T10:41:35.550Z,748
2018-07-13T10:42:36.141Z,756
2018-07-13T10:43:36.720Z,752
2018-07-13T10:44:37.302Z,748
2018-07-13T10:45:37.884Z,760
2018-07-13T10:46:38.460Z,752
2018-07-13T10:47:39.060Z,752
2018-07-13T10:48:39.644Z,756
2018-07-13T10:49:40.223Z,764
2018-07-13T10:50:40.811Z,768
2018-07-13T10:51:41.403Z,764
2018-07-13T10:52:41.982Z,764
2018-07-13T10:53:42.563Z,760
2018-07-13T10:54:43.157Z,764
2018-07-13T10:55:43.735Z,764
2018-07-13T10:56:44.316Z,764
2018-07-13T10:57:44.895Z,760
2018-07-13T10:58:45.511Z,756
2018-07-13T10:59:46.055Z,772
2018-07-13T11:00:46.635Z,784
2018-07-13T11:01:47.214Z,784
2018-07-13T11:02:47.841Z,784
2018-07-13T11:03:48.375Z,776
2018-07-13T11:04:48.956Z,776
2018-07-13T11:05:49.547Z,784
2018-07-13T11:06:50.125Z,788
2018-07-13T11:07:50.705Z,784
2018-07-13T11:08:51.288Z,780
2018-07-13T11:09:51.868Z,784
2018-07-13T11:10:52.449Z,788
2018-07-13T11:11:53.031Z,780
2018-07-13T11:12:53.621Z,780
2018-07-13T11:13:54.319Z,804
2018-07-13T11:14:54.784Z,800
2018-07-13T11:15:55.364Z,808
2018-07-13T11:16:55.944Z,804
2018-07-13T11:17:56.536Z,804
2018-07-13T11:18:57.119Z,800
2018-07-13T11:19:57.698Z,796
2018-07-13T11:20:58.279Z,792
2018-07-13T11:21:58.860Z,796
2018-07-13T11:22:59.440Z,804
2018-07-13T11:24:00.022Z,820
2018-07-13T11:25:00.600Z,816
2018-07-13T11:26:01.182Z,816
2018-07-13T11:27:01.766Z,808
2018-07-13T11:28:02.354Z,804
2018-07-13T11:29:02.934Z,816
2018-07-13T11:30:03.513Z,828
2018-07-13T11:31:04.105Z,820
2018-07-13T11:32:04.686Z,828
2018-07-13T11:33:05.265Z,808
2018-07-13T11:34:05.846Z,816
2018-07-13T11:35:06.429Z,824
2018-07-13T11:36:07.008Z,836
2018-07-13T11:37:07.784Z,828
2018-07-13T11:38:08.191Z,840
2018-07-13T11:39:08.750Z,836
2018-07-13T11:40:09.333Z,824
2018-07-13T11:41:09.913Z,832
2018-07-13T11:42:10.517Z,844
2018-07-13T11:43:11.076Z,844
2018-07-13T11:44:11.672Z,844
2018-07-13T11:45:12.237Z,844
2018-07-13T11:46:12.818Z,844
2018-07-13T11:47:13.401Z,852
2018-07-13T11:48:13.992Z,852
2018-07-13T11:49:14.571Z,852
2018-07-13T11:50:15.153Z,844
2018-07-13T11:51:15.746Z,848
2018-07-13T11:52:16.450Z,852
2018-07-13T11:53:16.925Z,856
2018-07-13T11:54:17.505Z,872
2018-07-13T11:55:18.085Z,880
2018-07-13T11:56:18.668Z,880
2018-07-13T11:57:19.248Z,872
2018-07-13T11:58:19.829Z,868
2018-07-13T11:59:20.409Z,876
2018-07-13T12:00:20.989Z,868
2018-07-13T12:01:21.571Z,868
2018-07-13T12:02:22.149Z,852
2018-07-13T12:03:22.731Z,872
2018-07-13T12:04:23.311Z,876
2018-07-13T12:05:23.892Z,884
2018-07-13T12:06:24.475Z,896
2018-07-13T12:07:25.132Z,916
2018-07-13T12:08:25.636Z,924
2018-07-13T12:09:26.219Z,920
2018-07-13T12:10:26.800Z,920
2018-07-13T12:11:27.380Z,916
2018-07-13T12:12:27.961Z,884
2018-07-13T12:13:28.539Z,916
2018-07-13T12:14:29.140Z,940
2018-07-13T12:15:29.702Z,924
2018-07-13T12:16:30.322Z,952
2018-07-13T12:17:30.979Z,932
2018-07-13T12:18:31.456Z,952
2018-07-13T12:19:32.047Z,940
2018-07-13T12:20:32.629Z,940
2018-07-13T12:21:33.209Z,948
2018-07-13T12:22:33.791Z,944
2018-07-13T12:23:34.373Z,968
2018-07-13T12:24:34.953Z,972
2018-07-13T12:25:35.541Z,968
2018-07-13T12:26:36.127Z,972
2018-07-13T12:27:36.709Z,976
2018-07-13T12:28:37.289Z,988
2018-07-13T12:29:37.873Z,992
2018-07-13T12:30:38.453Z,992
2018-07-13T12:31:39.034Z,988
2018-07-13T12:32:39.616Z,992
2018-07-13T12:33:40.196Z,976
2018-07-13T12:34:40.778Z,980
2018-07-13T12:35:41.358Z,996
2018-07-13T12:36:41.938Z,988
2018-07-13T12:37:42.520Z,972
2018-07-13T12:38:43.100Z,984
2018-07-13T12:39:43.742Z,996
2018-07-13T12:40:44.263Z,1000
2018-07-13T12:41:44.847Z,972
2018-07-13T12:42:45.440Z,960
2018-07-13T12:43:46.021Z,964
2018-07-13T12:44:46.611Z,988
2018-07-13T12:45:47.192Z,984
2018-07-13T12:46:47.774Z,984
2018-07-13T12:47:48.356Z,984
2018-07-13T12:48:48.937Z,972
2018-07-13T12:49:49.519Z,984
2018-07-13T12:50:50.100Z,972
2018-07-13T12:51:50.682Z,984
2018-07-13T12:52:51.262Z,980
2018-07-13T12:53:51.956Z,988
2018-07-13T12:54:52.426Z,1008
2018-07-13T12:55:53.008Z,1012
2018-07-13T12:56:53.592Z,1012
2018-07-13T12:57:54.176Z,1016
2018-07-13T12:58:54.759Z,1020
2018-07-13T12:59:55.342Z,1028
2018-07-13T13:00:55.926Z,1036
2018-07-13T13:01:56.507Z,1032
2018-07-13T13:02:57.090Z,1032
2018-07-13T13:03:57.673Z,1040
2018-07-13T13:04:58.255Z,1040
2018-07-13T13:05:58.837Z,1040
2018-07-13T13:06:59.419Z,1048
2018-07-13T13:08:00.012Z,1044
2018-07-13T13:09:00.605Z,1056
2018-07-13T13:10:01.186Z,1048
2018-07-13T13:11:01.772Z,1052
2018-07-13T13:12:02.361Z,1072
2018-07-13T13:13:02.945Z,1044
2018-07-13T13:14:03.529Z,1040
2018-07-13T13:15:04.107Z,968
2018-07-13T13:16:04.688Z,1068
2018-07-13T13:17:05.273Z,1076
2018-07-13T13:18:05.855Z,1060
2018-07-13T13:19:06.436Z,1084
2018-07-13T13:20:07.021Z,1096
2018-07-13T13:21:07.604Z,1112
2018-07-13T13:22:08.191Z,1108
2018-07-13T13:23:08.767Z,1124
2018-07-13T13:24:09.352Z,1128
2018-07-13T13:25:09.942Z,1132
2018-07-13T13:26:10.525Z,1148
2018-07-13T13:27:11.118Z,1152
2018-07-13T13:28:11.704Z,1172
2018-07-13T13:29:12.294Z,1196
2018-07-13T13:30:12.867Z,1200
2018-07-13T13:31:13.454Z,1200
2018-07-13T13:32:14.035Z,1208
2018-07-13T13:33:14.625Z,1208
2018-07-13T13:34:15.206Z,740
2018-07-13T13:35:15.789Z,1244
2018-07-13T13:36:16.370Z,1232
2018-07-13T13:37:16.954Z,1208
2018-07-13T13:38:17.534Z,1208
2018-07-13T13:39:18.117Z,1220
2018-07-13T13:40:18.700Z,1220
2018-07-13T13:41:19.282Z,1236
2018-07-13T13:42:19.864Z,1240
2018-07-13T13:43:20.458Z,1248
2018-07-13T13:44:21.039Z,1212
2018-07-13T13:45:21.632Z,1268
2018-07-13T13:46:22.215Z,1276
2018-07-13T13:47:22.797Z,1284
2018-07-13T13:48:23.384Z,716
2018-07-13T13:49:23.963Z,1276
2018-07-13T13:50:24.548Z,1280
2018-07-13T13:51:25.143Z,664
2018-07-13T13:52:25.718Z,1316
2018-07-13T13:53:26.301Z,1312
2018-07-13T13:54:26.883Z,1332
2018-07-13T13:55:27.465Z,1360
2018-07-13T13:56:28.045Z,1376
2018-07-13T13:57:28.628Z,1404
2018-07-13T13:58:29.221Z,1364
2018-07-13T13:59:29.803Z,1380
2018-07-13T14:00:30.386Z,1380
2018-07-13T14:01:30.971Z,812
2018-07-13T14:02:31.553Z,1396
2018-07-13T14:03:32.136Z,1432
2018-07-13T14:04:32.720Z,1388
2018-07-13T14:05:33.330Z,1428
2018-07-13T14:06:33.896Z,1424
2018-07-13T14:07:34.479Z,1448